Aviation Digital Data Service (ADDS)

Output produced by TAFs form (1339 UTC 03 December 2016)
found at http://aviationweather.gov/adds/tafs/
 
KCNY 031127Z 0312/0412 VRB03KT P6SM FEW250